sensor_id;sensor_type;location;lat;lon;timestamp;pressure;altitude;pressure_sealevel;temperature;humidity
61109;BME280;46995;55.740;37.402;2022-10-16T00:00:38;100709.50;;;4.92;70.74
61109;BME280;46995;55.740;37.402;2022-10-16T00:03:05;100715.53;;;4.92;71.00
61109;BME280;46995;55.740;37.402;2022-10-16T00:05:33;100709.00;;;4.82;71.05
61109;BME280;46995;55.740;37.402;2022-10-16T00:08:03;100730.34;;;4.93;71.35
61109;BME280;46995;55.740;37.402;2022-10-16T00:10:28;100724.34;;;4.91;71.33
61109;BME280;46995;55.740;37.402;2022-10-16T00:12:54;100709.16;;;4.79;71.33
61109;BME280;46995;55.740;37.402;2022-10-16T00:15:20;100719.56;;;4.81;71.06
61109;BME280;46995;55.740;37.402;2022-10-16T00:17:46;100735.84;;;4.87;70.99
61109;BME280;46995;55.740;37.402;2022-10-16T00:20:11;100734.00;;;4.89;71.37
61109;BME280;46995;55.740;37.402;2022-10-16T00:22:55;100726.31;;;4.86;70.99
61109;BME280;46995;55.740;37.402;2022-10-16T00:25:24;100734.00;;;4.89;71.04
61109;BME280;46995;55.740;37.402;2022-10-16T00:27:49;100729.19;;;4.80;71.17
61109;BME280;46995;55.740;37.402;2022-10-16T00:30:15;100726.69;;;4.77;71.09
61109;BME280;46995;55.740;37.402;2022-10-16T00:32:41;100720.16;;;4.67;71.49
61109;BME280;46995;55.740;37.402;2022-10-16T00:35:08;100728.84;;;4.67;71.76
61109;BME280;46995;55.740;37.402;2022-10-16T00:37:34;100737.69;;;4.65;71.75
61109;BME280;46995;55.740;37.402;2022-10-16T00:39:59;100736.66;;;4.69;71.37
61109;BME280;46995;55.740;37.402;2022-10-16T00:42:25;100748.88;;;4.68;71.85
61109;BME280;46995;55.740;37.402;2022-10-16T00:44:53;100749.84;;;4.66;71.95
61109;BME280;46995;55.740;37.402;2022-10-16T00:49:59;100736.09;;;4.61;72.31
61109;BME280;46995;55.740;37.402;2022-10-16T00:52:28;100753.41;;;4.65;72.06
61109;BME280;46995;55.740;37.402;2022-10-16T00:54:55;100753.50;;;4.62;72.05
61109;BME280;46995;55.740;37.402;2022-10-16T00:57:22;100755.41;;;4.58;72.06
61109;BME280;46995;55.740;37.402;2022-10-16T00:59:48;100746.09;;;4.51;71.87
61109;BME280;46995;55.740;37.402;2022-10-16T01:02:15;100760.69;;;4.57;71.58
61109;BME280;46995;55.740;37.402;2022-10-16T01:04:46;100743.88;;;4.42;72.16
61109;BME280;46995;55.740;37.402;2022-10-16T01:12:58;100753.25;;;4.48;72.17
61109;BME280;46995;55.740;37.402;2022-10-16T01:15:50;100766.19;;;4.51;72.33
61109;BME280;46995;55.740;37.402;2022-10-16T01:18:42;100768.94;;;4.48;72.01
61109;BME280;46995;55.740;37.402;2022-10-16T01:29:18;100767.63;;;4.38;72.54
61109;BME280;46995;55.740;37.402;2022-10-16T01:31:51;100772.03;;;4.36;72.61
61109;BME280;46995;55.740;37.402;2022-10-16T01:34:28;100771.19;;;4.35;72.70
61109;BME280;46995;55.740;37.402;2022-10-16T01:37:02;100757.59;;;4.27;72.86
61109;BME280;46995;55.740;37.402;2022-10-16T01:39:32;100758.63;;;4.23;72.87
61109;BME280;46995;55.740;37.402;2022-10-16T01:42:08;100765.38;;;4.29;72.76
61109;BME280;46995;55.740;37.402;2022-10-16T01:44:36;100762.00;;;4.25;72.59
61109;BME280;46995;55.740;37.402;2022-10-16T01:47:04;100772.56;;;4.23;72.99
61109;BME280;46995;55.740;37.402;2022-10-16T01:49:33;100764.97;;;4.17;72.95
61109;BME280;46995;55.740;37.402;2022-10-16T01:52:06;100769.16;;;4.21;73.29
61109;BME280;46995;55.740;37.402;2022-10-16T01:54:35;100769.38;;;4.15;72.99
61109;BME280;46995;55.740;37.402;2022-10-16T01:57:04;100772.91;;;4.14;73.11
61109;BME280;46995;55.740;37.402;2022-10-16T01:59:33;100760.88;;;4.10;72.95
61109;BME280;46995;55.740;37.402;2022-10-16T02:02:06;100758.31;;;4.09;73.31
61109;BME280;46995;55.740;37.402;2022-10-16T02:04:39;100762.78;;;4.07;73.13
61109;BME280;46995;55.740;37.402;2022-10-16T02:07:08;100762.81;;;4.05;73.32
61109;BME280;46995;55.740;37.402;2022-10-16T02:09:34;100765.91;;;4.15;73.10
61109;BME280;46995;55.740;37.402;2022-10-16T02:12:05;100774.50;;;4.18;73.14
61109;BME280;46995;55.740;37.402;2022-10-16T02:14:32;100765.16;;;4.13;73.09
61109;BME280;46995;55.740;37.402;2022-10-16T02:16:58;100770.97;;;4.19;72.89
61109;BME280;46995;55.740;37.402;2022-10-16T02:19:24;100764.41;;;4.09;72.80
61109;BME280;46995;55.740;37.402;2022-10-16T02:22:02;100771.91;;;4.18;73.20
61109;BME280;46995;55.740;37.402;2022-10-16T02:27:27;100769.38;;;4.15;73.16
61109;BME280;46995;55.740;37.402;2022-10-16T02:30:24;100765.25;;;4.10;72.88
61109;BME280;46995;55.740;37.402;2022-10-16T02:32:48;100779.13;;;4.12;73.17
61109;BME280;46995;55.740;37.402;2022-10-16T02:35:17;100781.72;;;4.12;73.00
61109;BME280;46995;55.740;37.402;2022-10-16T02:37:44;100783.50;;;4.11;72.96
61109;BME280;46995;55.740;37.402;2022-10-16T02:40:12;100773.50;;;3.99;73.18
61109;BME280;46995;55.740;37.402;2022-10-16T02:42:39;100785.69;;;4.00;73.59
61109;BME280;46995;55.740;37.402;2022-10-16T02:45:06;100776.44;;;3.92;73.61
61109;BME280;46995;55.740;37.402;2022-10-16T02:47:33;100797.94;;;3.98;73.84
61109;BME280;46995;55.740;37.402;2022-10-16T02:49:59;100792.84;;;3.95;73.77
61109;BME280;46995;55.740;37.402;2022-10-16T02:52:25;100792.97;;;3.92;74.08
61109;BME280;46995;55.740;37.402;2022-10-16T02:54:51;100784.47;;;3.87;74.12
61109;BME280;46995;55.740;37.402;2022-10-16T02:57:17;100773.38;;;3.80;74.00
61109;BME280;46995;55.740;37.402;2022-10-16T02:59:44;100776.19;;;3.76;74.05
61109;BME280;46995;55.740;37.402;2022-10-16T03:02:09;100783.09;;;3.77;73.97
61109;BME280;46995;55.740;37.402;2022-10-16T03:04:36;100786.63;;;3.76;74.27
61109;BME280;46995;55.740;37.402;2022-10-16T03:07:02;100800.38;;;3.81;74.00
61109;BME280;46995;55.740;37.402;2022-10-16T03:09:28;100793.53;;;3.77;73.95
61109;BME280;46995;55.740;37.402;2022-10-16T03:11:54;100786.72;;;3.73;74.33
61109;BME280;46995;55.740;37.402;2022-10-16T03:14:19;100782.66;;;3.66;74.24
61109;BME280;46995;55.740;37.402;2022-10-16T03:16:45;100804.16;;;3.72;74.21
61109;BME280;46995;55.740;37.402;2022-10-16T03:19:11;100792.31;;;3.64;74.34
61109;BME280;46995;55.740;37.402;2022-10-16T03:21:36;100807.72;;;3.71;74.05
61109;BME280;46995;55.740;37.402;2022-10-16T03:24:02;100792.53;;;3.58;74.73
61109;BME280;46995;55.740;37.402;2022-10-16T03:26:28;100794.03;;;3.65;74.82
61109;BME280;46995;55.740;37.402;2022-10-16T03:28:53;100778.78;;;3.53;74.87
61109;BME280;46995;55.740;37.402;2022-10-16T03:31:19;100802.03;;;3.60;74.57
61109;BME280;46995;55.740;37.402;2022-10-16T03:33:45;100797.06;;;3.53;74.83
61109;BME280;46995;55.740;37.402;2022-10-16T03:36:10;100811.63;;;3.60;74.61
61109;BME280;46995;55.740;37.402;2022-10-16T03:38:36;100815.13;;;3.59;74.98
61109;BME280;46995;55.740;37.402;2022-10-16T03:41:02;100816.94;;;3.57;74.88
61109;BME280;46995;55.740;37.402;2022-10-16T03:43:28;100806.75;;;3.51;74.69
61109;BME280;46995;55.740;37.402;2022-10-16T03:45:54;100814.59;;;3.51;75.18
61109;BME280;46995;55.740;37.402;2022-10-16T03:48:20;100795.75;;;3.41;75.03
61109;BME280;46995;55.740;37.402;2022-10-16T03:50:45;100802.59;;;3.45;74.93
61109;BME280;46995;55.740;37.402;2022-10-16T03:53:15;100811.22;;;3.47;75.10
61109;BME280;46995;55.740;37.402;2022-10-16T03:55:42;100809.41;;;3.49;74.76
61109;BME280;46995;55.740;37.402;2022-10-16T03:58:08;100791.53;;;3.38;75.15
61109;BME280;46995;55.740;37.402;2022-10-16T04:00:34;100824.09;;;3.52;74.87
61109;BME280;46995;55.740;37.402;2022-10-16T04:03:00;100791.63;;;3.35;75.15
61109;BME280;46995;55.740;37.402;2022-10-16T04:05:26;100808.78;;;3.42;75.00
61109;BME280;46995;55.740;37.402;2022-10-16T04:07:52;100817.28;;;3.48;75.24
61109;BME280;46995;55.740;37.402;2022-10-16T04:10:18;100820.81;;;3.47;75.34
61109;BME280;46995;55.740;37.402;2022-10-16T04:12:44;100832.88;;;3.51;75.08
61109;BME280;46995;55.740;37.402;2022-10-16T04:15:10;100793.22;;;3.39;74.90
61109;BME280;46995;55.740;37.402;2022-10-16T04:17:36;100812.19;;;3.45;74.71
61109;BME280;46995;55.740;37.402;2022-10-16T04:20:02;100809.88;;;3.35;75.12
61109;BME280;46995;55.740;37.402;2022-10-16T04:22:28;100820.81;;;3.47;75.05
61109;BME280;46995;55.740;37.402;2022-10-16T04:24:54;100814.13;;;3.39;75.31
61109;BME280;46995;55.740;37.402;2022-10-16T04:27:19;100810.47;;;3.44;75.26
61109;BME280;46995;55.740;37.402;2022-10-16T04:29:45;100824.56;;;3.39;75.11
61109;BME280;46995;55.740;37.402;2022-10-16T04:32:11;100831.38;;;3.44;75.14
61109;BME280;46995;55.740;37.402;2022-10-16T04:34:39;100827.94;;;3.41;75.39
61109;BME280;46995;55.740;37.402;2022-10-16T04:37:05;100829.78;;;3.39;75.26
61109;BME280;46995;55.740;37.402;2022-10-16T04:39:31;100835.56;;;3.48;75.11
61109;BME280;46995;55.740;37.402;2022-10-16T04:41:56;100825.34;;;3.41;74.94
61109;BME280;46995;55.740;37.402;2022-10-16T04:44:22;100837.22;;;3.50;75.16
61109;BME280;46995;55.740;37.402;2022-10-16T04:46:50;100825.16;;;3.46;74.63
61109;BME280;46995;55.740;37.402;2022-10-16T04:49:16;100803.69;;;3.39;74.90
61109;BME280;46995;55.740;37.402;2022-10-16T04:51:41;100825.06;;;3.49;74.67
61109;BME280;46995;55.740;37.402;2022-10-16T04:54:08;100823.25;;;3.51;75.03
61109;BME280;46995;55.740;37.402;2022-10-16T04:56:35;100840.28;;;3.61;74.42
61109;BME280;46995;55.740;37.402;2022-10-16T04:59:09;100836.03;;;3.59;74.37
61109;BME280;46995;55.740;37.402;2022-10-16T05:01:35;100831.84;;;3.55;74.68
61109;BME280;46995;55.740;37.402;2022-10-16T05:04:01;100837.66;;;3.61;74.22
61109;BME280;46995;55.740;37.402;2022-10-16T05:06:26;100837.63;;;3.63;74.79
61109;BME280;46995;55.740;37.402;2022-10-16T05:08:52;100837.75;;;3.60;74.35
61109;BME280;46995;55.740;37.402;2022-10-16T05:11:18;100827.50;;;3.54;74.87
61109;BME280;46995;55.740;37.402;2022-10-16T05:13:43;100834.22;;;3.61;74.70
61109;BME280;46995;55.740;37.402;2022-10-16T05:16:09;100836.03;;;3.59;74.43
61109;BME280;46995;55.740;37.402;2022-10-16T05:18:35;100836.03;;;3.59;74.60
61109;BME280;46995;55.740;37.402;2022-10-16T05:21:00;100830.59;;;3.65;74.16
61109;BME280;46995;55.740;37.402;2022-10-16T05:23:26;100834.84;;;3.67;74.46
61109;BME280;46995;55.740;37.402;2022-10-16T05:25:56;100849.22;;;3.79;74.16
61109;BME280;46995;55.740;37.402;2022-10-16T05:28:28;100844.88;;;3.78;74.02
61109;BME280;46995;55.740;37.402;2022-10-16T05:30:54;100837.03;;;3.78;73.75
61109;BME280;46995;55.740;37.402;2022-10-16T05:33:21;100849.94;;;3.82;74.04
61109;BME280;46995;55.740;37.402;2022-10-16T05:35:47;100855.91;;;3.86;74.14
61109;BME280;46995;55.740;37.402;2022-10-16T05:38:13;100851.59;;;3.85;73.57
61109;BME280;46995;55.740;37.402;2022-10-16T05:40:38;100846.06;;;3.93;73.66
61109;BME280;46995;55.740;37.402;2022-10-16T05:43:04;100858.31;;;3.92;73.66
61109;BME280;46995;55.740;37.402;2022-10-16T05:45:30;100848.63;;;3.94;73.75
61109;BME280;46995;55.740;37.402;2022-10-16T05:47:56;100842.50;;;3.95;73.17
61109;BME280;46995;55.740;37.402;2022-10-16T05:50:22;100861.06;;;4.11;73.25
61109;BME280;46995;55.740;37.402;2022-10-16T05:52:47;100849.75;;;4.10;73.32
61109;BME280;46995;55.740;37.402;2022-10-16T05:55:13;100867.41;;;4.27;72.84
61109;BME280;46995;55.740;37.402;2022-10-16T05:57:39;100846.66;;;4.22;72.99
61109;BME280;46995;55.740;37.402;2022-10-16T06:00:05;100846.50;;;4.27;72.71
61109;BME280;46995;55.740;37.402;2022-10-16T06:02:38;100848.69;;;4.38;72.50
61109;BME280;46995;55.740;37.402;2022-10-16T06:05:07;100874.94;;;4.56;72.29
61109;BME280;46995;55.740;37.402;2022-10-16T06:07:35;100859.44;;;4.52;72.12
61109;BME280;46995;55.740;37.402;2022-10-16T06:10:01;100861.56;;;4.64;71.73
61109;BME280;46995;55.740;37.402;2022-10-16T06:12:28;100855.34;;;4.66;71.76
61109;BME280;46995;55.740;37.402;2022-10-16T06:14:54;100857.66;;;4.74;71.23
61109;BME280;46995;55.740;37.402;2022-10-16T06:17:19;100868.75;;;4.81;71.66
61109;BME280;46995;55.740;37.402;2022-10-16T06:19:45;100860.81;;;4.82;71.43
61109;BME280;46995;55.740;37.402;2022-10-16T06:22:12;100851.38;;;4.78;71.34
61109;BME280;46995;55.740;37.402;2022-10-16T06:24:39;100874.19;;;4.96;71.30
61109;BME280;46995;55.740;37.402;2022-10-16T06:27:05;100880.84;;;5.03;71.31
61109;BME280;46995;55.740;37.402;2022-10-16T06:29:30;100864.28;;;5.03;71.01
61109;BME280;46995;55.740;37.402;2022-10-16T06:31:56;100868.16;;;5.15;70.75
61109;BME280;46995;55.740;37.402;2022-10-16T06:34:22;100869.72;;;5.19;70.36
61109;BME280;46995;55.740;37.402;2022-10-16T06:36:47;100869.41;;;5.26;70.37
61109;BME280;46995;55.740;37.402;2022-10-16T06:39:14;100874.41;;;5.32;70.00
61109;BME280;46995;55.740;37.402;2022-10-16T06:41:40;100871.38;;;5.41;70.09
61109;BME280;46995;55.740;37.402;2022-10-16T06:44:15;100888.84;;;5.61;69.70
61109;BME280;46995;55.740;37.402;2022-10-16T06:46:40;100887.88;;;5.64;69.38
61109;BME280;46995;55.740;37.402;2022-10-16T06:49:06;100851.44;;;5.58;69.35
61109;BME280;46995;55.740;37.402;2022-10-16T06:51:32;100883.72;;;5.78;69.23
61109;BME280;46995;55.740;37.402;2022-10-16T06:53:59;100882.66;;;5.82;68.87
61109;BME280;46995;55.740;37.402;2022-10-16T06:56:27;100875.06;;;5.76;68.93
61109;BME280;46995;55.740;37.402;2022-10-16T06:58:53;100877.28;;;5.85;68.49
61109;BME280;46995;55.740;37.402;2022-10-16T07:01:22;100869.53;;;5.82;68.67
61109;BME280;46995;55.740;37.402;2022-10-16T07:03:49;100891.81;;;5.92;68.62
61109;BME280;46995;55.740;37.402;2022-10-16T07:06:17;100885.53;;;5.97;68.52
61109;BME280;46995;55.740;37.402;2022-10-16T07:08:44;100890.78;;;5.97;68.49
61109;BME280;46995;55.740;37.402;2022-10-16T07:11:13;100887.09;;;6.01;68.64
61109;BME280;46995;55.740;37.402;2022-10-16T07:13:40;100885.25;;;6.03;68.75
61109;BME280;46995;55.740;37.402;2022-10-16T07:16:18;100878.47;;;6.17;68.00
61109;BME280;46995;55.740;37.402;2022-10-16T07:18:45;100882.47;;;6.24;68.47
61109;BME280;46995;55.740;37.402;2022-10-16T07:21:13;100871.06;;;6.25;67.89
61109;BME280;46995;55.740;37.402;2022-10-16T07:23:39;100877.31;;;6.42;68.29
61109;BME280;46995;55.740;37.402;2022-10-16T07:26:06;100886.38;;;6.53;67.33
61109;BME280;46995;55.740;37.402;2022-10-16T07:28:33;100889.47;;;6.61;67.48
61109;BME280;46995;55.740;37.402;2022-10-16T07:31:10;100891.09;;;6.64;67.15
61109;BME280;46995;55.740;37.402;2022-10-16T07:33:40;100870.19;;;6.62;67.52
61109;BME280;46995;55.740;37.402;2022-10-16T07:36:07;100886.59;;;6.85;67.29
61109;BME280;46995;55.740;37.402;2022-10-16T07:38:33;100889.69;;;6.93;67.18
61109;BME280;46995;55.740;37.402;2022-10-16T07:41:04;100862.00;;;6.86;66.29
61109;BME280;46995;55.740;37.402;2022-10-16T07:43:30;100894.16;;;7.08;66.63
61109;BME280;46995;55.740;37.402;2022-10-16T07:45:57;100857.41;;;6.91;66.26
61109;BME280;46995;55.740;37.402;2022-10-16T07:48:27;100891.72;;;7.22;66.15
61109;BME280;46995;55.740;37.402;2022-10-16T07:50:57;100888.75;;;7.28;66.47
61109;BME280;46995;55.740;37.402;2022-10-16T07:53:23;100870.28;;;7.30;66.31
61109;BME280;46995;55.740;37.402;2022-10-16T07:55:48;100885.13;;;7.48;65.68
61109;BME280;46995;55.740;37.402;2022-10-16T07:58:15;100884.94;;;7.51;66.04
61109;BME280;46995;55.740;37.402;2022-10-16T08:00:41;100863.00;;;7.52;65.27
61109;BME280;46995;55.740;37.402;2022-10-16T08:03:08;100873.38;;;7.71;65.14
61109;BME280;46995;55.740;37.402;2022-10-16T08:05:35;100880.88;;;7.78;64.67
61109;BME280;46995;55.740;37.402;2022-10-16T08:08:02;100879.53;;;7.87;64.85
61109;BME280;46995;55.740;37.402;2022-10-16T08:10:28;100887.53;;;8.01;64.05
61109;BME280;46995;55.740;37.402;2022-10-16T08:12:54;100888.13;;;8.06;64.83
61109;BME280;46995;55.740;37.402;2022-10-16T08:15:21;100877.59;;;8.06;63.76
61109;BME280;46995;55.740;37.402;2022-10-16T08:18:01;100877.72;;;8.20;62.96
61109;BME280;46995;55.740;37.402;2022-10-16T08:20:28;100862.09;;;8.17;63.15
61109;BME280;46995;55.740;37.402;2022-10-16T08:22:54;100867.09;;;8.22;62.98
61109;BME280;46995;55.740;37.402;2022-10-16T08:25:21;100883.53;;;8.42;62.46
61109;BME280;46995;55.740;37.402;2022-10-16T08:27:47;100867.91;;;8.39;62.28
61109;BME280;46995;55.740;37.402;2022-10-16T08:30:15;100872.50;;;8.52;62.04
61109;BME280;46995;55.740;37.402;2022-10-16T08:32:41;100869.59;;;8.56;61.60
61109;BME280;46995;55.740;37.402;2022-10-16T08:35:09;100871.13;;;8.60;61.38
61109;BME280;46995;55.740;37.402;2022-10-16T08:37:35;100873.31;;;8.68;61.04
61109;BME280;46995;55.740;37.402;2022-10-16T08:40:01;100860.16;;;8.68;61.33
61109;BME280;46995;55.740;37.402;2022-10-16T08:42:32;100871.75;;;8.79;61.21
61109;BME280;46995;55.740;37.402;2022-10-16T08:47:49;100875.31;;;8.94;60.33
61109;BME280;46995;55.740;37.402;2022-10-16T08:50:25;100874.97;;;9.00;59.78
61109;BME280;46995;55.740;37.402;2022-10-16T08:52:54;100880.25;;;9.00;60.20
61109;BME280;46995;55.740;37.402;2022-10-16T08:55:50;100871.69;;;9.11;60.91
61109;BME280;46995;55.740;37.402;2022-10-16T08:58:18;100863.34;;;9.18;59.54
61109;BME280;46995;55.740;37.402;2022-10-16T09:00:47;100863.13;;;9.21;58.93
61109;BME280;46995;55.740;37.402;2022-10-16T09:12:19;100871.31;;;9.61;59.12
61109;BME280;46995;55.740;37.402;2022-10-16T09:18:19;100870.19;;;9.79;57.89
61109;BME280;46995;55.740;37.402;2022-10-16T09:20:53;100862.00;;;9.84;57.04
61109;BME280;46995;55.740;37.402;2022-10-16T09:23:28;100871.13;;;9.92;56.69
61109;BME280;46995;55.740;37.402;2022-10-16T09:25:55;100849.16;;;9.92;56.49
61109;BME280;46995;55.740;37.402;2022-10-16T09:28:24;100852.06;;;10.01;56.17
61109;BME280;46995;55.740;37.402;2022-10-16T09:30:50;100853.78;;;10.02;55.65
61109;BME280;46995;55.740;37.402;2022-10-16T09:33:19;100857.75;;;10.09;55.86
61109;BME280;46995;55.740;37.402;2022-10-16T09:35:50;100855.09;;;10.09;55.53
61109;BME280;46995;55.740;37.402;2022-10-16T09:38:31;100853.88;;;10.15;54.71
61109;BME280;46995;55.740;37.402;2022-10-16T09:40:59;100839.25;;;10.09;55.02
61109;BME280;46995;55.740;37.402;2022-10-16T09:43:57;100846.25;;;10.25;55.56
61109;BME280;46995;55.740;37.402;2022-10-16T09:46:33;100838.69;;;10.18;54.79
61109;BME280;46995;55.740;37.402;2022-10-16T09:49:01;100844.88;;;10.32;54.15
61109;BME280;46995;55.740;37.402;2022-10-16T09:51:33;100843.75;;;10.36;53.57
61109;BME280;46995;55.740;37.402;2022-10-16T09:54:21;100837.41;;;10.38;54.33
61109;BME280;46995;55.740;37.402;2022-10-16T09:56:47;100837.03;;;10.44;53.79
61109;BME280;46995;55.740;37.402;2022-10-16T09:59:19;100819.84;;;10.25;53.15
61109;BME280;46995;55.740;37.402;2022-10-16T10:01:51;100837.41;;;10.38;53.06
61109;BME280;46995;55.740;37.402;2022-10-16T10:04:20;100844.09;;;10.44;53.12
61109;BME280;46995;55.740;37.402;2022-10-16T10:12:03;100826.25;;;10.47;53.61
61109;BME280;46995;55.740;37.402;2022-10-16T10:14:52;100835.19;;;10.59;53.83
61109;BME280;46995;55.740;37.402;2022-10-16T10:20:01;100827.19;;;10.73;55.39
61109;BME280;46995;55.740;37.402;2022-10-16T10:22:44;100833.53;;;10.71;52.80
61109;BME280;46995;55.740;37.402;2022-10-16T10:30:36;100812.50;;;10.69;52.57
61109;BME280;46995;55.740;37.402;2022-10-16T10:33:37;100835.38;;;10.83;53.80
61109;BME280;46995;55.740;37.402;2022-10-16T10:41:37;100829.88;;;10.86;52.97
61109;BME280;46995;55.740;37.402;2022-10-16T10:50:08;100821.63;;;10.90;53.97
61109;BME280;46995;55.740;37.402;2022-10-16T11:01:44;100810.84;;;10.81;52.87
61109;BME280;46995;55.740;37.402;2022-10-16T11:06:55;100799.09;;;10.72;53.14
61109;BME280;46995;55.740;37.402;2022-10-16T11:09:45;100799.63;;;10.77;53.68
61109;BME280;46995;55.740;37.402;2022-10-16T11:12:19;100809.44;;;10.75;52.94
61109;BME280;46995;55.740;37.402;2022-10-16T11:25:27;100791.50;;;10.80;52.88
61109;BME280;46995;55.740;37.402;2022-10-16T11:28:17;100783.97;;;10.74;53.12
61109;BME280;46995;55.740;37.402;2022-10-16T11:30:54;100806.53;;;10.92;52.92
61109;BME280;46995;55.740;37.402;2022-10-16T11:36:11;100796.59;;;10.96;52.36
61109;BME280;46995;55.740;37.402;2022-10-16T11:38:58;100810.97;;;11.04;53.19
61109;BME280;46995;55.740;37.402;2022-10-16T11:41:32;100774.59;;;10.95;52.74
61109;BME280;46995;55.740;37.402;2022-10-16T11:47:03;100776.53;;;10.93;52.44
61109;BME280;46995;55.740;37.402;2022-10-16T11:49:34;100764.25;;;10.92;52.72
61109;BME280;46995;55.740;37.402;2022-10-16T11:58:26;100748.16;;;10.95;52.27
61109;BME280;46995;55.740;37.402;2022-10-16T12:00:59;100793.47;;;11.29;52.67
61109;BME280;46995;55.740;37.402;2022-10-16T12:03:41;100795.56;;;11.24;51.94
61109;BME280;46995;55.740;37.402;2022-10-16T12:06:38;100799.47;;;11.31;52.19
61109;BME280;46995;55.740;37.402;2022-10-16T12:09:14;100790.06;;;11.27;52.08
61109;BME280;46995;55.740;37.402;2022-10-16T12:11:40;100767.22;;;11.26;51.81
61109;BME280;46995;55.740;37.402;2022-10-16T12:14:18;100793.16;;;11.46;51.15
61109;BME280;46995;55.740;37.402;2022-10-16T12:19:24;100749.22;;;11.56;50.38
61109;BME280;46995;55.740;37.402;2022-10-16T12:21:52;100777.28;;;12.08;49.93
61109;BME280;46995;55.740;37.402;2022-10-16T12:26:54;100750.38;;;12.49;49.05
61109;BME280;46995;55.740;37.402;2022-10-16T12:31:55;100762.97;;;13.04;47.49
61109;BME280;46995;55.740;37.402;2022-10-16T12:34:42;100781.81;;;13.12;46.86
61109;BME280;46995;55.740;37.402;2022-10-16T12:37:33;100780.03;;;12.89;47.66
61109;BME280;46995;55.740;37.402;2022-10-16T12:40:32;100762.09;;;12.57;48.06
61109;BME280;46995;55.740;37.402;2022-10-16T12:42:57;100768.59;;;12.53;48.26
61109;BME280;46995;55.740;37.402;2022-10-16T12:45:32;100769.50;;;12.41;47.74
61109;BME280;46995;55.740;37.402;2022-10-16T12:48:01;100761.03;;;12.36;48.57
61109;BME280;46995;55.740;37.402;2022-10-16T12:50:38;100767.03;;;12.27;48.73
61109;BME280;46995;55.740;37.402;2022-10-16T12:53:21;100763.81;;;12.11;49.62
61109;BME280;46995;55.740;37.402;2022-10-16T12:59:06;100743.94;;;11.56;50.23
61109;BME280;46995;55.740;37.402;2022-10-16T13:06:50;100773.34;;;11.26;51.55
61109;BME280;46995;55.740;37.402;2022-10-16T13:18:06;100770.78;;;10.99;51.75
61109;BME280;46995;55.740;37.402;2022-10-16T13:21:00;100776.41;;;10.95;51.92
61109;BME280;46995;55.740;37.402;2022-10-16T13:26:31;100762.78;;;10.88;52.27
61109;BME280;46995;55.740;37.402;2022-10-16T13:29:01;100748.13;;;10.70;52.30
61109;BME280;46995;55.740;37.402;2022-10-16T13:31:28;100754.50;;;10.68;52.51
61109;BME280;46995;55.740;37.402;2022-10-16T13:33:58;100775.94;;;10.76;52.49
61109;BME280;46995;55.740;37.402;2022-10-16T13:36:27;100759.88;;;10.66;52.66
61109;BME280;46995;55.740;37.402;2022-10-16T13:39:22;100765.69;;;10.71;53.00
61109;BME280;46995;55.740;37.402;2022-10-16T13:42:03;100767.78;;;10.66;53.17
61109;BME280;46995;55.740;37.402;2022-10-16T13:44:35;100759.34;;;10.61;53.21
61109;BME280;46995;55.740;37.402;2022-10-16T13:47:02;100754.00;;;10.48;53.15
61109;BME280;46995;55.740;37.402;2022-10-16T13:49:28;100763.53;;;10.51;53.70
61109;BME280;46995;55.740;37.402;2022-10-16T13:51:56;100749.66;;;10.35;53.71
61109;BME280;46995;55.740;37.402;2022-10-16T13:54:23;100754.16;;;10.33;53.48
61109;BME280;46995;55.740;37.402;2022-10-16T13:56:49;100755.97;;;10.32;53.88
61109;BME280;46995;55.740;37.402;2022-10-16T13:59:26;100757.09;;;10.28;54.12
61109;BME280;46995;55.740;37.402;2022-10-16T14:01:55;100770.22;;;10.30;54.29
61109;BME280;46995;55.740;37.402;2022-10-16T14:04:22;100758.75;;;10.16;54.38
61109;BME280;46995;55.740;37.402;2022-10-16T14:06:50;100776.53;;;10.27;54.50
61109;BME280;46995;55.740;37.402;2022-10-16T14:11:55;100757.44;;;10.09;54.50
61109;BME280;46995;55.740;37.402;2022-10-16T14:14:22;100769.13;;;10.05;54.82
61109;BME280;46995;55.740;37.402;2022-10-16T14:16:49;100746.16;;;9.93;54.91
61109;BME280;46995;55.740;37.402;2022-10-16T14:19:22;100775.94;;;9.95;54.98
61109;BME280;46995;55.740;37.402;2022-10-16T14:21:52;100765.97;;;9.86;55.34
61109;BME280;46995;55.740;37.402;2022-10-16T14:26:56;100774.81;;;9.85;55.68
61109;BME280;46995;55.740;37.402;2022-10-16T14:29:24;100754.38;;;9.74;55.49
61109;BME280;46995;55.740;37.402;2022-10-16T14:32:00;100765.06;;;9.73;55.95
61109;BME280;46995;55.740;37.402;2022-10-16T14:34:35;100770.97;;;9.76;55.84
61109;BME280;46995;55.740;37.402;2022-10-16T14:37:28;100772.84;;;9.74;55.79
61109;BME280;46995;55.740;37.402;2022-10-16T14:39:55;100757.69;;;9.64;55.70
61109;BME280;46995;55.740;37.402;2022-10-16T14:42:24;100767.13;;;9.68;56.58
61109;BME280;46995;55.740;37.402;2022-10-16T14:44:52;100766.66;;;9.61;56.44
61109;BME280;46995;55.740;37.402;2022-10-16T14:47:20;100759.50;;;9.49;56.97
61109;BME280;46995;55.740;37.402;2022-10-16T14:49:52;100761.50;;;9.46;56.83
61109;BME280;46995;55.740;37.402;2022-10-16T14:52:20;100759.78;;;9.45;56.85
61109;BME280;46995;55.740;37.402;2022-10-16T14:54:50;100766.09;;;9.42;56.97
61109;BME280;46995;55.740;37.402;2022-10-16T14:57:26;100770.53;;;9.42;57.19
61109;BME280;46995;55.740;37.402;2022-10-16T14:59:53;100775.81;;;9.42;56.96
61109;BME280;46995;55.740;37.402;2022-10-16T15:02:31;100765.72;;;9.34;56.98
61109;BME280;46995;55.740;37.402;2022-10-16T15:04:58;100776.19;;;9.35;57.21
61109;BME280;46995;55.740;37.402;2022-10-16T15:07:31;100763.66;;;9.25;57.36